createdAt,value
2017-10-07T00:00:43.882Z,6.70
2017-10-07T00:03:11.614Z,6.67
2017-10-07T00:05:39.298Z,6.70
2017-10-07T00:08:07.036Z,6.73
2017-10-07T00:10:34.718Z,6.72
2017-10-07T00:13:02.575Z,6.71
2017-10-07T00:15:30.369Z,6.73
2017-10-07T00:17:58.035Z,6.72
2017-10-07T00:20:25.753Z,6.74
2017-10-07T00:22:53.569Z,6.68
2017-10-07T00:25:21.269Z,6.69
2017-10-07T00:27:48.961Z,6.70
2017-10-07T00:30:16.695Z,6.67
2017-10-07T00:32:44.440Z,6.72
2017-10-07T00:35:12.265Z,6.75
2017-10-07T00:37:39.999Z,6.77
2017-10-07T00:40:07.769Z,6.76
2017-10-07T00:42:35.473Z,6.83
2017-10-07T00:45:03.194Z,6.82
2017-10-07T00:47:30.880Z,6.95
2017-10-07T00:49:58.930Z,6.92
2017-10-07T00:52:26.696Z,6.92
2017-10-07T00:54:54.377Z,6.84
2017-10-07T00:57:22.168Z,6.82
2017-10-07T00:59:49.980Z,6.86
2017-10-07T01:02:17.749Z,6.88
2017-10-07T01:04:45.522Z,6.84
2017-10-07T01:07:13.211Z,6.82
2017-10-07T01:09:40.962Z,6.84
2017-10-07T01:12:08.713Z,6.87
2017-10-07T01:14:36.422Z,6.80
2017-10-07T01:17:04.154Z,6.78
2017-10-07T01:19:31.912Z,6.77
2017-10-07T01:22:01.035Z,6.73
2017-10-07T01:24:28.762Z,6.76
2017-10-07T01:26:56.527Z,6.76
2017-10-07T01:29:24.235Z,6.74
2017-10-07T01:31:52.037Z,6.76
2017-10-07T01:34:19.799Z,6.77
2017-10-07T01:36:47.535Z,6.65
2017-10-07T01:39:15.390Z,6.85
2017-10-07T01:41:43.101Z,6.76
2017-10-07T01:44:10.849Z,6.70
2017-10-07T01:46:38.594Z,6.56
2017-10-07T01:49:06.282Z,6.56
2017-10-07T01:51:34.052Z,6.57
2017-10-07T01:54:02.390Z,6.58
2017-10-07T01:56:30.232Z,6.54
2017-10-07T01:58:57.907Z,6.60
2017-10-07T02:01:25.565Z,6.55
2017-10-07T02:03:53.293Z,6.59
2017-10-07T02:06:20.994Z,6.58
2017-10-07T02:08:48.760Z,6.50
2017-10-07T02:11:16.436Z,6.45
2017-10-07T02:13:44.112Z,6.44
2017-10-07T02:16:11.848Z,6.50
2017-10-07T02:18:39.545Z,6.47
2017-10-07T02:21:07.315Z,6.57
2017-10-07T02:23:35.106Z,6.62
2017-10-07T02:26:02.858Z,6.58
2017-10-07T02:28:30.576Z,6.50
2017-10-07T02:30:58.281Z,6.44
2017-10-07T02:33:25.960Z,6.45
2017-10-07T02:35:53.739Z,6.50
2017-10-07T02:38:21.509Z,6.57
2017-10-07T02:40:49.200Z,6.49
2017-10-07T02:43:16.938Z,6.45
2017-10-07T02:45:44.679Z,6.33
2017-10-07T02:48:12.398Z,6.44
2017-10-07T02:50:40.636Z,6.31
2017-10-07T02:53:08.387Z,6.37
2017-10-07T02:55:36.376Z,6.36
2017-10-07T02:58:04.274Z,6.30
2017-10-07T03:00:32.117Z,6.37
2017-10-07T03:02:59.972Z,6.47
2017-10-07T03:05:27.655Z,6.54
2017-10-07T03:07:55.404Z,6.55
2017-10-07T03:10:23.177Z,6.52
2017-10-07T03:12:50.892Z,6.53
2017-10-07T03:15:18.634Z,6.54
2017-10-07T03:17:46.762Z,6.49
2017-10-07T03:20:14.511Z,6.58
2017-10-07T03:22:42.231Z,6.58
2017-10-07T03:25:09.975Z,6.55
2017-10-07T03:27:37.652Z,6.45
2017-10-07T03:30:05.415Z,6.50
2017-10-07T03:32:33.081Z,6.50
2017-10-07T03:35:00.820Z,6.44
2017-10-07T03:37:28.551Z,6.41
2017-10-07T03:39:56.290Z,6.46
2017-10-07T03:42:24.086Z,6.43
2017-10-07T03:44:51.864Z,6.42
2017-10-07T03:47:19.605Z,6.37
2017-10-07T03:49:47.295Z,6.31
2017-10-07T03:52:15.796Z,6.32
2017-10-07T03:54:43.522Z,6.29
2017-10-07T03:57:11.231Z,6.29
2017-10-07T03:59:39.011Z,6.33
2017-10-07T04:02:06.711Z,6.20
2017-10-07T04:04:34.394Z,6.26
2017-10-07T04:07:02.134Z,6.24
2017-10-07T04:09:29.847Z,6.23
2017-10-07T04:11:57.554Z,6.29
2017-10-07T04:14:25.260Z,6.21
2017-10-07T04:16:52.975Z,6.24
2017-10-07T04:19:20.718Z,6.29
2017-10-07T04:21:48.424Z,6.26
2017-10-07T04:24:16.151Z,6.30
2017-10-07T04:26:43.809Z,6.13
2017-10-07T04:29:11.540Z,6.20
2017-10-07T04:31:39.253Z,6.14
2017-10-07T04:34:06.955Z,6.50
2017-10-07T04:36:35.764Z,6.44
2017-10-07T04:39:03.615Z,6.32
2017-10-07T04:41:31.397Z,6.31
2017-10-07T04:43:59.340Z,6.32
2017-10-07T04:46:27.223Z,6.22
2017-10-07T04:48:55.015Z,6.24
2017-10-07T04:51:22.757Z,6.28
2017-10-07T04:53:50.479Z,6.26
2017-10-07T04:56:18.184Z,6.27
2017-10-07T04:58:45.949Z,6.22
2017-10-07T05:01:14.918Z,6.16
2017-10-07T05:03:42.702Z,6.19
2017-10-07T05:06:10.460Z,6.20
2017-10-07T05:08:38.224Z,6.27
2017-10-07T05:11:05.954Z,6.33
2017-10-07T05:13:33.736Z,6.25
2017-10-07T05:16:01.484Z,6.15
2017-10-07T05:18:29.279Z,6.19
2017-10-07T05:20:57.009Z,6.15
2017-10-07T05:23:24.932Z,6.19
2017-10-07T05:25:52.756Z,6.27
2017-10-07T05:28:20.760Z,6.32
2017-10-07T05:30:48.461Z,6.39
2017-10-07T05:33:16.210Z,6.45
2017-10-07T05:35:43.961Z,6.51
2017-10-07T05:38:11.674Z,6.56
2017-10-07T05:40:39.592Z,6.56
2017-10-07T05:43:07.305Z,6.57
2017-10-07T05:45:35.781Z,6.49
2017-10-07T05:48:03.586Z,6.50
2017-10-07T05:50:31.287Z,6.62
2017-10-07T05:52:58.980Z,6.61
2017-10-07T05:55:26.885Z,6.65
2017-10-07T05:57:54.589Z,6.68
2017-10-07T06:00:22.298Z,6.73
2017-10-07T06:02:50.060Z,6.78
2017-10-07T06:05:17.736Z,6.76
2017-10-07T06:07:45.443Z,6.87
2017-10-07T06:10:13.706Z,6.90
2017-10-07T06:12:41.475Z,6.85
2017-10-07T06:15:09.204Z,6.95
2017-10-07T06:17:36.948Z,6.94
2017-10-07T06:20:04.747Z,7.03
2017-10-07T06:22:32.544Z,7.06
2017-10-07T06:25:00.288Z,7.09
2017-10-07T06:27:28.134Z,7.23
2017-10-07T06:29:55.803Z,7.21
2017-10-07T06:32:23.556Z,7.37
2017-10-07T06:34:51.324Z,7.39
2017-10-07T06:37:19.075Z,7.47
2017-10-07T06:39:46.833Z,7.55
2017-10-07T06:42:15.832Z,7.77
2017-10-07T06:44:43.687Z,8.02
2017-10-07T06:47:11.893Z,7.98
2017-10-07T06:49:39.860Z,8.16
2017-10-07T06:52:07.653Z,8.24
2017-10-07T06:54:35.416Z,8.16
2017-10-07T06:57:03.195Z,8.33
2017-10-07T06:59:30.944Z,8.47
2017-10-07T07:01:59.227Z,8.51
2017-10-07T07:04:27.044Z,8.51
2017-10-07T07:06:55.017Z,8.52
2017-10-07T07:09:22.775Z,8.38
2017-10-07T07:11:51.220Z,8.41
2017-10-07T07:14:19.624Z,8.32
2017-10-07T07:16:47.548Z,8.34
2017-10-07T07:19:15.388Z,8.35
2017-10-07T07:21:43.223Z,8.62
2017-10-07T07:24:12.391Z,8.72
2017-10-07T07:26:40.233Z,8.65
2017-10-07T07:29:07.985Z,8.38
2017-10-07T07:31:35.667Z,8.60
2017-10-07T07:34:03.528Z,8.82
2017-10-07T07:36:31.293Z,8.91
2017-10-07T07:38:59.047Z,9.40
2017-10-07T07:41:26.758Z,9.50
2017-10-07T07:43:54.496Z,9.75
2017-10-07T07:46:22.244Z,9.97
2017-10-07T07:48:50.143Z,10.27
2017-10-07T07:51:17.954Z,10.10
2017-10-07T07:53:45.778Z,10.01
2017-10-07T07:56:13.554Z,10.44
2017-10-07T07:58:41.777Z,10.74
2017-10-07T08:01:09.619Z,10.47
2017-10-07T08:03:37.546Z,11.28
2017-10-07T08:06:05.335Z,11.12
2017-10-07T08:08:33.230Z,11.63
2017-10-07T08:11:00.921Z,11.49
2017-10-07T08:13:28.635Z,12.43
2017-10-07T08:15:56.464Z,12.32
2017-10-07T08:18:24.246Z,12.00
2017-10-07T08:20:51.973Z,11.39
2017-10-07T08:23:19.736Z,11.19
2017-10-07T08:25:47.533Z,12.14
2017-10-07T08:28:15.271Z,12.07
2017-10-07T08:30:43.161Z,11.60
2017-10-07T08:33:13.704Z,11.48
2017-10-07T08:35:41.500Z,12.12
2017-10-07T08:38:09.372Z,12.02
2017-10-07T08:40:38.064Z,11.74
2017-10-07T08:43:06.027Z,10.88
2017-10-07T08:45:33.746Z,10.46
2017-10-07T08:48:01.559Z,10.75
2017-10-07T08:50:29.308Z,11.16
2017-10-07T08:52:57.207Z,10.65
2017-10-07T08:55:24.968Z,10.56
2017-10-07T08:57:52.647Z,10.53
2017-10-07T09:00:20.643Z,10.50
2017-10-07T09:02:48.470Z,10.98
2017-10-07T09:05:16.258Z,11.41
2017-10-07T09:07:44.963Z,10.68
2017-10-07T09:10:12.761Z,10.89
2017-10-07T09:12:40.536Z,10.73
2017-10-07T09:15:08.899Z,10.38
2017-10-07T09:17:36.686Z,10.47
2017-10-07T09:20:04.435Z,10.18
2017-10-07T09:22:32.154Z,10.40
2017-10-07T09:25:00.111Z,10.53
2017-10-07T09:27:27.880Z,10.99
2017-10-07T09:29:55.591Z,11.33
2017-10-07T09:32:23.424Z,11.62
2017-10-07T09:34:51.230Z,11.60
2017-10-07T09:37:19.178Z,11.72
2017-10-07T09:39:46.868Z,11.26
2017-10-07T09:42:14.639Z,11.39
2017-10-07T09:44:42.445Z,11.25
2017-10-07T09:47:10.148Z,10.90
2017-10-07T09:49:37.852Z,11.47
2017-10-07T09:52:05.611Z,11.56
2017-10-07T09:54:34.049Z,11.45
2017-10-07T09:57:01.768Z,10.97
2017-10-07T09:59:29.487Z,11.10
2017-10-07T10:01:57.217Z,10.96
2017-10-07T10:04:25.053Z,10.64
2017-10-07T10:06:53.659Z,10.81
2017-10-07T10:09:21.561Z,10.72
2017-10-07T10:11:49.268Z,10.89
2017-10-07T10:14:17.043Z,11.34
2017-10-07T10:16:44.737Z,11.55
2017-10-07T10:19:12.480Z,11.46
2017-10-07T10:21:41.316Z,11.85
2017-10-07T10:24:09.006Z,11.43
2017-10-07T10:26:36.748Z,11.18
2017-10-07T10:29:04.435Z,11.75
2017-10-07T10:31:32.163Z,11.93
2017-10-07T10:33:59.886Z,12.55
2017-10-07T10:36:27.635Z,12.56
2017-10-07T10:38:55.391Z,12.32
2017-10-07T10:41:23.096Z,11.85
2017-10-07T10:43:50.803Z,11.20
2017-10-07T10:46:18.591Z,11.15
2017-10-07T10:48:46.412Z,11.06
2017-10-07T10:51:14.288Z,10.91
2017-10-07T10:53:41.965Z,11.03
2017-10-07T10:56:09.734Z,11.03
2017-10-07T10:58:37.849Z,10.76
2017-10-07T11:01:06.496Z,10.85
2017-10-07T11:03:34.243Z,11.15
2017-10-07T11:06:02.025Z,11.23
2017-10-07T11:08:29.803Z,11.52
2017-10-07T11:10:57.584Z,11.76
2017-10-07T11:13:26.525Z,12.32
2017-10-07T11:15:54.400Z,12.01
2017-10-07T11:18:22.839Z,11.94
2017-10-07T11:20:50.556Z,11.83
2017-10-07T11:23:18.549Z,12.03
2017-10-07T11:25:46.320Z,12.36
2017-10-07T11:28:14.125Z,11.82
2017-10-07T11:30:42.805Z,11.67
2017-10-07T11:33:10.540Z,12.49
2017-10-07T11:35:38.319Z,13.10
2017-10-07T11:38:06.157Z,13.30
2017-10-07T11:40:33.892Z,13.31
2017-10-07T11:43:01.704Z,13.31
2017-10-07T11:45:29.611Z,13.04
2017-10-07T11:47:57.338Z,12.89
2017-10-07T11:50:25.106Z,12.80
2017-10-07T11:52:52.917Z,12.67
2017-10-07T11:55:21.542Z,12.37
2017-10-07T11:57:49.529Z,12.24
2017-10-07T12:00:17.232Z,12.17
2017-10-07T12:02:44.965Z,12.06
2017-10-07T12:05:12.715Z,12.41
2017-10-07T12:07:41.249Z,12.50
2017-10-07T12:10:09.265Z,12.37
2017-10-07T12:12:37.126Z,12.73
2017-10-07T12:15:04.920Z,13.21
2017-10-07T12:17:33.654Z,13.67
2017-10-07T12:20:01.441Z,13.16
2017-10-07T12:22:29.227Z,12.71
2017-10-07T12:24:56.903Z,12.96
2017-10-07T12:27:24.643Z,12.95
2017-10-07T12:29:52.395Z,13.18
2017-10-07T12:32:20.913Z,13.25
2017-10-07T12:34:49.172Z,13.22
2017-10-07T12:37:16.930Z,13.37
2017-10-07T12:39:44.673Z,13.20
2017-10-07T12:42:12.540Z,12.63
2017-10-07T12:44:40.265Z,12.71
2017-10-07T12:47:08.039Z,12.76
2017-10-07T12:49:35.818Z,12.78
2017-10-07T12:52:03.597Z,13.16
2017-10-07T12:54:31.317Z,12.70
2017-10-07T12:56:58.998Z,12.54
2017-10-07T12:59:26.767Z,12.16
2017-10-07T13:01:56.105Z,11.95
2017-10-07T13:04:25.800Z,11.52
2017-10-07T13:06:53.719Z,11.66
2017-10-07T13:09:21.514Z,11.66
2017-10-07T13:11:49.180Z,11.73
2017-10-07T13:14:18.924Z,11.78
2017-10-07T13:16:47.584Z,11.69
2017-10-07T13:19:15.344Z,11.64
2017-10-07T13:21:43.208Z,11.55
2017-10-07T13:24:10.920Z,11.35
2017-10-07T13:26:38.622Z,11.55
2017-10-07T13:29:06.407Z,11.68
2017-10-07T13:31:34.100Z,11.86
2017-10-07T13:34:01.909Z,11.87
2017-10-07T13:36:29.676Z,12.06
2017-10-07T13:38:58.227Z,12.12
2017-10-07T13:41:25.951Z,11.75
2017-10-07T13:43:53.624Z,12.26
2017-10-07T13:46:21.377Z,12.38
2017-10-07T13:48:49.109Z,12.43
2017-10-07T13:51:17.016Z,12.41
2017-10-07T13:53:44.681Z,12.63
2017-10-07T13:56:12.419Z,12.38
2017-10-07T13:58:40.124Z,12.21
2017-10-07T14:01:08.675Z,12.10
2017-10-07T14:03:37.121Z,12.08
2017-10-07T14:06:04.880Z,11.95
2017-10-07T14:08:32.640Z,12.38
2017-10-07T14:11:00.406Z,12.56
2017-10-07T14:13:28.144Z,12.31
2017-10-07T14:15:55.915Z,12.65
2017-10-07T14:18:23.750Z,12.25
2017-10-07T14:20:51.470Z,11.85
2017-10-07T14:23:19.255Z,11.70
2017-10-07T14:25:46.960Z,12.20
2017-10-07T14:28:14.734Z,12.39
2017-10-07T14:30:42.537Z,12.10
2017-10-07T14:33:10.217Z,12.12
2017-10-07T14:35:40.499Z,12.09
2017-10-07T14:38:08.644Z,12.10
2017-10-07T14:40:36.381Z,12.18
2017-10-07T14:43:04.135Z,12.08
2017-10-07T14:45:31.946Z,11.97
2017-10-07T14:47:59.723Z,12.02
2017-10-07T14:50:27.447Z,12.29
2017-10-07T14:52:55.197Z,12.42
2017-10-07T14:55:22.951Z,12.60
2017-10-07T14:57:50.750Z,12.54
2017-10-07T15:00:18.534Z,12.29
2017-10-07T15:02:46.247Z,12.04
2017-10-07T15:05:13.992Z,11.81
2017-10-07T15:07:41.740Z,11.44
2017-10-07T15:10:09.483Z,11.47
2017-10-07T15:12:37.307Z,11.26
2017-10-07T15:15:05.874Z,11.16
2017-10-07T15:17:33.632Z,10.86
2017-10-07T15:20:01.380Z,10.80
2017-10-07T15:22:29.055Z,10.95
2017-10-07T15:24:58.710Z,10.72
2017-10-07T15:27:26.484Z,10.58
2017-10-07T15:29:54.192Z,10.72
2017-10-07T15:32:22.828Z,10.64
2017-10-07T15:34:50.516Z,10.36
2017-10-07T15:37:18.213Z,10.42
2017-10-07T15:39:45.993Z,10.54
2017-10-07T15:42:14.071Z,10.30
2017-10-07T15:44:41.803Z,10.19
2017-10-07T15:47:09.596Z,10.06
2017-10-07T15:49:37.316Z,9.88
2017-10-07T15:52:05.083Z,9.88
2017-10-07T15:54:32.845Z,9.88
2017-10-07T15:57:00.558Z,9.79
2017-10-07T15:59:28.287Z,9.71
2017-10-07T16:01:56.234Z,9.66
2017-10-07T16:04:24.001Z,9.65
2017-10-07T16:06:52.711Z,9.55
2017-10-07T16:09:21.137Z,9.43
2017-10-07T16:11:48.846Z,9.48
2017-10-07T16:14:16.561Z,9.49
2017-10-07T16:16:44.306Z,9.39
2017-10-07T16:19:12.059Z,9.26
2017-10-07T16:21:40.982Z,9.29
2017-10-07T16:24:08.703Z,9.35
2017-10-07T16:26:36.407Z,9.08
2017-10-07T16:29:04.277Z,8.93
2017-10-07T16:31:32.064Z,8.75
2017-10-07T16:33:59.898Z,8.60
2017-10-07T16:36:27.704Z,8.73
2017-10-07T16:38:55.470Z,8.64
2017-10-07T16:41:23.282Z,8.35
2017-10-07T16:43:51.199Z,8.32
2017-10-07T16:46:19.653Z,8.33
2017-10-07T16:48:47.462Z,8.23
2017-10-07T16:51:15.241Z,8.10
2017-10-07T16:53:42.990Z,8.06
2017-10-07T16:56:10.754Z,8.09
2017-10-07T16:58:38.502Z,8.09
2017-10-07T17:01:06.275Z,7.97
2017-10-07T17:03:34.012Z,7.90
2017-10-07T17:06:01.698Z,7.70
2017-10-07T17:08:29.496Z,7.74
2017-10-07T17:10:57.216Z,7.72
2017-10-07T17:13:24.978Z,7.91
2017-10-07T17:15:52.775Z,7.92
2017-10-07T17:18:20.496Z,7.82
2017-10-07T17:20:48.297Z,7.80
2017-10-07T17:23:16.112Z,7.69
2017-10-07T17:25:43.879Z,7.63
2017-10-07T17:28:12.723Z,7.62
2017-10-07T17:30:40.495Z,7.53
2017-10-07T17:33:09.291Z,7.52
2017-10-07T17:35:37.215Z,7.45
2017-10-07T17:38:06.065Z,7.45
2017-10-07T17:40:33.775Z,7.42
2017-10-07T17:43:02.352Z,7.31
2017-10-07T17:45:30.148Z,7.21
2017-10-07T17:47:58.145Z,7.34
2017-10-07T17:50:25.842Z,7.41
2017-10-07T17:52:53.563Z,7.42
2017-10-07T17:55:21.470Z,7.13
2017-10-07T17:57:49.279Z,7.14
2017-10-07T18:00:17.084Z,7.18
2017-10-07T18:02:44.821Z,7.07
2017-10-07T18:05:12.559Z,7.10
2017-10-07T18:07:40.409Z,6.92
2017-10-07T18:10:09.183Z,7.04
2017-10-07T18:12:36.930Z,7.09
2017-10-07T18:15:04.653Z,7.23
2017-10-07T18:17:32.451Z,7.29
2017-10-07T18:20:00.485Z,7.25
2017-10-07T18:22:28.546Z,7.07
2017-10-07T18:24:56.491Z,7.10
2017-10-07T18:27:25.163Z,6.88
2017-10-07T18:29:53.117Z,6.86
2017-10-07T18:32:21.070Z,6.87
2017-10-07T18:34:50.359Z,6.90
2017-10-07T18:37:18.214Z,6.90
2017-10-07T18:39:46.356Z,6.83
2017-10-07T18:42:14.146Z,6.77
2017-10-07T18:44:42.184Z,6.81
2017-10-07T18:47:10.078Z,6.85
2017-10-07T18:49:39.263Z,6.97
2017-10-07T18:52:08.232Z,7.05
2017-10-07T18:54:37.620Z,7.03
2017-10-07T18:57:05.703Z,7.21
2017-10-07T18:59:33.968Z,7.21
2017-10-07T19:02:02.021Z,7.17
2017-10-07T19:04:30.112Z,7.00
2017-10-07T19:06:59.140Z,7.11
2017-10-07T19:09:27.245Z,7.08
2017-10-07T19:11:56.335Z,7.09
2017-10-07T19:14:25.183Z,6.96
2017-10-07T19:16:53.168Z,7.00
2017-10-07T19:19:23.450Z,6.97
2017-10-07T19:21:52.586Z,7.07
2017-10-07T19:24:20.443Z,7.15
2017-10-07T19:26:48.842Z,7.19
2017-10-07T19:29:17.843Z,7.22
2017-10-07T19:31:46.405Z,7.06
2017-10-07T19:34:14.490Z,7.04
2017-10-07T19:36:44.232Z,7.01
2017-10-07T19:39:14.038Z,6.98
2017-10-07T19:41:42.955Z,7.46
2017-10-07T19:44:14.593Z,7.64
2017-10-07T19:46:42.737Z,7.72
2017-10-07T19:49:10.836Z,7.74
2017-10-07T19:51:38.577Z,7.74
2017-10-07T19:54:06.322Z,7.75
2017-10-07T19:56:34.398Z,7.48
2017-10-07T19:59:02.354Z,7.35
2017-10-07T20:01:30.128Z,7.18
2017-10-07T20:03:58.229Z,7.16
2017-10-07T20:06:26.066Z,7.10
2017-10-07T20:08:54.075Z,7.05
2017-10-07T20:11:22.743Z,6.97
2017-10-07T20:13:50.508Z,7.04
2017-10-07T20:16:18.909Z,7.17
2017-10-07T20:18:46.708Z,7.16
2017-10-07T20:21:14.494Z,7.02
2017-10-07T20:23:42.312Z,6.97
2017-10-07T20:26:10.682Z,6.96
2017-10-07T20:28:38.411Z,6.88
2017-10-07T20:31:06.143Z,6.85
2017-10-07T20:33:33.898Z,6.95
2017-10-07T20:36:01.876Z,6.71
2017-10-07T20:38:30.581Z,6.75
2017-10-07T20:40:59.653Z,6.78
2017-10-07T20:43:27.770Z,6.78
2017-10-07T20:45:55.591Z,6.75
2017-10-07T20:48:23.317Z,6.75
2017-10-07T20:50:51.788Z,6.68
2017-10-07T20:53:19.582Z,6.71
2017-10-07T20:55:47.316Z,6.76
2017-10-07T20:58:15.066Z,6.71
2017-10-07T21:00:43.926Z,6.64
2017-10-07T21:03:11.614Z,6.69
2017-10-07T21:05:39.348Z,6.71
2017-10-07T21:08:07.501Z,6.60
2017-10-07T21:10:36.342Z,6.79
2017-10-07T21:13:04.094Z,6.79
2017-10-07T21:15:31.951Z,6.81
2017-10-07T21:17:59.897Z,6.81
2017-10-07T21:20:28.372Z,6.75
2017-10-07T21:22:56.210Z,6.77
2017-10-07T21:25:23.926Z,6.80
2017-10-07T21:27:51.698Z,6.82
2017-10-07T21:30:19.525Z,6.82
2017-10-07T21:32:47.402Z,6.67
2017-10-07T21:35:15.161Z,6.67
2017-10-07T21:37:43.101Z,6.71
2017-10-07T21:40:10.772Z,6.69
2017-10-07T21:42:38.464Z,6.74
2017-10-07T21:45:06.863Z,6.74
2017-10-07T21:47:35.547Z,6.68
2017-10-07T21:50:04.505Z,6.78
2017-10-07T21:52:33.447Z,6.73
2017-10-07T21:55:01.143Z,6.70
2017-10-07T21:57:28.896Z,6.67
2017-10-07T21:59:56.615Z,6.67
2017-10-07T22:02:24.348Z,6.57
2017-10-07T22:04:52.159Z,6.48
2017-10-07T22:07:19.895Z,6.44
2017-10-07T22:09:47.575Z,6.36
2017-10-07T22:12:16.014Z,6.33
2017-10-07T22:14:43.742Z,6.37
2017-10-07T22:17:11.445Z,6.37
2017-10-07T22:19:39.283Z,6.43
2017-10-07T22:22:06.962Z,6.50
2017-10-07T22:24:34.651Z,6.42
2017-10-07T22:27:02.366Z,6.49
2017-10-07T22:29:30.066Z,6.44
2017-10-07T22:31:57.782Z,6.30
2017-10-07T22:34:25.538Z,6.25
2017-10-07T22:36:53.286Z,6.33
2017-10-07T22:39:20.953Z,6.31
2017-10-07T22:41:48.757Z,6.36
2017-10-07T22:44:16.510Z,6.32
2017-10-07T22:46:44.316Z,6.29
2017-10-07T22:49:12.036Z,6.34
2017-10-07T22:51:39.689Z,6.35
2017-10-07T22:54:07.428Z,6.36
2017-10-07T22:56:35.183Z,6.42
2017-10-07T22:59:02.886Z,6.47
2017-10-07T23:01:30.636Z,6.49
2017-10-07T23:03:58.362Z,6.51
2017-10-07T23:06:26.066Z,6.43
2017-10-07T23:08:53.825Z,6.32
2017-10-07T23:11:21.644Z,6.37
2017-10-07T23:13:50.284Z,6.41
2017-10-07T23:16:18.076Z,6.43
2017-10-07T23:18:45.831Z,6.53
2017-10-07T23:21:13.503Z,6.49
2017-10-07T23:23:41.317Z,6.51
2017-10-07T23:26:09.074Z,6.47
2017-10-07T23:28:36.748Z,6.55
2017-10-07T23:31:04.542Z,6.55
2017-10-07T23:33:32.241Z,6.43
2017-10-07T23:36:00.793Z,6.48
2017-10-07T23:38:28.537Z,6.54
2017-10-07T23:40:56.276Z,6.51
2017-10-07T23:43:24.033Z,6.44
2017-10-07T23:45:51.737Z,6.47
2017-10-07T23:48:19.425Z,6.48
2017-10-07T23:50:47.187Z,6.42
2017-10-07T23:53:14.857Z,6.37
2017-10-07T23:55:42.560Z,6.35
2017-10-07T23:58:10.307Z,6.41
